sensor_id;sensor_type;location;lat;lon;timestamp;P1;durP1;ratioP1;P2;durP2;ratioP2
20004;SDS011;69160;45.498;-73.582;2023-05-14T00:00:24;8.20;;;3.93;;
20004;SDS011;69160;45.498;-73.582;2023-05-14T00:02:50;15.57;;;4.27;;
20004;SDS011;69160;45.498;-73.582;2023-05-14T00:05:16;7.47;;;3.13;;
20004;SDS011;69160;45.498;-73.582;2023-05-14T00:07:43;11.63;;;3.83;;
20004;SDS011;69160;45.498;-73.582;2023-05-14T00:10:09;15.23;;;3.07;;
20004;SDS011;69160;45.498;-73.582;2023-05-14T00:12:35;8.13;;;3.33;;
20004;SDS011;69160;45.498;-73.582;2023-05-14T00:15:01;13.43;;;3.73;;
20004;SDS011;69160;45.498;-73.582;2023-05-14T00:17:28;7.20;;;3.53;;
20004;SDS011;69160;45.498;-73.582;2023-05-14T00:19:54;11.03;;;3.40;;
20004;SDS011;69160;45.498;-73.582;2023-05-14T00:22:20;12.13;;;3.10;;
20004;SDS011;69160;45.498;-73.582;2023-05-14T00:24:46;9.10;;;3.27;;
20004;SDS011;69160;45.498;-73.582;2023-05-14T00:27:12;10.10;;;3.10;;
20004;SDS011;69160;45.498;-73.582;2023-05-14T00:29:39;9.70;;;2.80;;
20004;SDS011;69160;45.498;-73.582;2023-05-14T00:32:05;13.23;;;2.80;;
20004;SDS011;69160;45.498;-73.582;2023-05-14T00:34:31;6.40;;;3.50;;
20004;SDS011;69160;45.498;-73.582;2023-05-14T00:36:57;7.10;;;2.53;;
20004;SDS011;69160;45.498;-73.582;2023-05-14T00:39:23;6.80;;;2.80;;
20004;SDS011;69160;45.498;-73.582;2023-05-14T00:41:50;6.20;;;2.60;;
20004;SDS011;69160;45.498;-73.582;2023-05-14T00:44:16;6.87;;;2.77;;
20004;SDS011;69160;45.498;-73.582;2023-05-14T00:46:42;3.53;;;2.50;;
20004;SDS011;69160;45.498;-73.582;2023-05-14T00:49:08;7.90;;;2.47;;
20004;SDS011;69160;45.498;-73.582;2023-05-14T00:51:35;10.60;;;2.30;;
20004;SDS011;69160;45.498;-73.582;2023-05-14T00:54:02;4.60;;;2.30;;
20004;SDS011;69160;45.498;-73.582;2023-05-14T00:56:28;3.70;;;2.00;;
20004;SDS011;69160;45.498;-73.582;2023-05-14T00:58:54;4.97;;;2.43;;
20004;SDS011;69160;45.498;-73.582;2023-05-14T01:01:20;4.60;;;2.03;;
20004;SDS011;69160;45.498;-73.582;2023-05-14T01:03:46;5.20;;;2.20;;
20004;SDS011;69160;45.498;-73.582;2023-05-14T01:06:17;3.33;;;2.30;;
20004;SDS011;69160;45.498;-73.582;2023-05-14T01:17:12;6.90;;;2.27;;
20004;SDS011;69160;45.498;-73.582;2023-05-14T01:19:43;5.50;;;1.90;;
20004;SDS011;69160;45.498;-73.582;2023-05-14T01:22:10;11.07;;;2.23;;
20004;SDS011;69160;45.498;-73.582;2023-05-14T01:24:36;5.93;;;2.10;;
20004;SDS011;69160;45.498;-73.582;2023-05-14T01:27:24;7.40;;;2.00;;
20004;SDS011;69160;45.498;-73.582;2023-05-14T01:32:59;2.70;;;1.77;;
20004;SDS011;69160;45.498;-73.582;2023-05-14T01:35:30;2.10;;;1.50;;
20004;SDS011;69160;45.498;-73.582;2023-05-14T01:38:00;5.87;;;2.10;;
20004;SDS011;69160;45.498;-73.582;2023-05-14T01:40:29;6.13;;;1.80;;
20004;SDS011;69160;45.498;-73.582;2023-05-14T01:42:58;2.40;;;1.73;;
20004;SDS011;69160;45.498;-73.582;2023-05-14T01:45:25;3.70;;;1.70;;
20004;SDS011;69160;45.498;-73.582;2023-05-14T01:47:51;7.40;;;1.90;;
20004;SDS011;69160;45.498;-73.582;2023-05-14T01:50:17;2.60;;;1.97;;
20004;SDS011;69160;45.498;-73.582;2023-05-14T01:52:43;3.13;;;2.20;;
20004;SDS011;69160;45.498;-73.582;2023-05-14T01:55:10;4.93;;;1.90;;
20004;SDS011;69160;45.498;-73.582;2023-05-14T01:57:37;3.83;;;1.90;;
20004;SDS011;69160;45.498;-73.582;2023-05-14T02:00:03;3.03;;;1.77;;
20004;SDS011;69160;45.498;-73.582;2023-05-14T02:02:30;4.20;;;1.57;;
20004;SDS011;69160;45.498;-73.582;2023-05-14T02:04:56;5.00;;;1.80;;
20004;SDS011;69160;45.498;-73.582;2023-05-14T02:07:22;3.40;;;1.50;;
20004;SDS011;69160;45.498;-73.582;2023-05-14T02:09:48;7.90;;;1.90;;
20004;SDS011;69160;45.498;-73.582;2023-05-14T02:12:14;3.30;;;1.70;;
20004;SDS011;69160;45.498;-73.582;2023-05-14T02:14:40;3.63;;;1.50;;
20004;SDS011;69160;45.498;-73.582;2023-05-14T02:17:06;9.93;;;1.83;;
20004;SDS011;69160;45.498;-73.582;2023-05-14T02:19:33;3.80;;;1.97;;
20004;SDS011;69160;45.498;-73.582;2023-05-14T02:21:59;7.23;;;1.50;;
20004;SDS011;69160;45.498;-73.582;2023-05-14T02:24:25;8.53;;;1.53;;
20004;SDS011;69160;45.498;-73.582;2023-05-14T02:26:51;7.00;;;1.50;;
20004;SDS011;69160;45.498;-73.582;2023-05-14T02:29:17;3.63;;;1.70;;
20004;SDS011;69160;45.498;-73.582;2023-05-14T02:31:44;5.53;;;1.60;;
20004;SDS011;69160;45.498;-73.582;2023-05-14T02:34:10;5.03;;;1.73;;
20004;SDS011;69160;45.498;-73.582;2023-05-14T02:36:36;2.03;;;1.57;;
20004;SDS011;69160;45.498;-73.582;2023-05-14T02:39:02;3.47;;;1.37;;
20004;SDS011;69160;45.498;-73.582;2023-05-14T02:41:29;3.07;;;1.47;;
20004;SDS011;69160;45.498;-73.582;2023-05-14T02:43:55;3.83;;;1.40;;
20004;SDS011;69160;45.498;-73.582;2023-05-14T02:46:21;2.30;;;1.40;;
20004;SDS011;69160;45.498;-73.582;2023-05-14T02:48:47;2.50;;;1.50;;
20004;SDS011;69160;45.498;-73.582;2023-05-14T02:51:13;4.37;;;1.47;;
20004;SDS011;69160;45.498;-73.582;2023-05-14T02:53:40;1.80;;;1.20;;
20004;SDS011;69160;45.498;-73.582;2023-05-14T02:56:06;1.77;;;1.20;;
20004;SDS011;69160;45.498;-73.582;2023-05-14T02:58:32;1.10;;;0.93;;
20004;SDS011;69160;45.498;-73.582;2023-05-14T03:00:59;3.50;;;1.53;;
20004;SDS011;69160;45.498;-73.582;2023-05-14T03:03:25;2.93;;;1.27;;
20004;SDS011;69160;45.498;-73.582;2023-05-14T03:05:51;3.63;;;1.33;;
20004;SDS011;69160;45.498;-73.582;2023-05-14T03:08:17;4.33;;;1.40;;
20004;SDS011;69160;45.498;-73.582;2023-05-14T03:10:43;2.80;;;1.50;;
20004;SDS011;69160;45.498;-73.582;2023-05-14T03:13:10;1.63;;;1.20;;
20004;SDS011;69160;45.498;-73.582;2023-05-14T03:15:36;1.30;;;1.20;;
20004;SDS011;69160;45.498;-73.582;2023-05-14T03:18:02;2.27;;;1.13;;
20004;SDS011;69160;45.498;-73.582;2023-05-14T03:20:28;2.10;;;1.33;;
20004;SDS011;69160;45.498;-73.582;2023-05-14T03:22:54;2.33;;;1.27;;
20004;SDS011;69160;45.498;-73.582;2023-05-14T03:25:21;3.20;;;1.27;;
20004;SDS011;69160;45.498;-73.582;2023-05-14T03:27:47;2.47;;;1.27;;
20004;SDS011;69160;45.498;-73.582;2023-05-14T03:30:13;2.90;;;1.27;;
20004;SDS011;69160;45.498;-73.582;2023-05-14T03:32:39;1.47;;;1.10;;
20004;SDS011;69160;45.498;-73.582;2023-05-14T03:35:05;3.90;;;1.30;;
20004;SDS011;69160;45.498;-73.582;2023-05-14T03:37:32;2.13;;;1.33;;
20004;SDS011;69160;45.498;-73.582;2023-05-14T03:39:58;1.60;;;0.80;;
20004;SDS011;69160;45.498;-73.582;2023-05-14T03:42:24;2.20;;;1.37;;
20004;SDS011;69160;45.498;-73.582;2023-05-14T03:44:51;4.60;;;1.20;;
20004;SDS011;69160;45.498;-73.582;2023-05-14T03:47:17;1.60;;;1.27;;
20004;SDS011;69160;45.498;-73.582;2023-05-14T03:49:43;1.53;;;1.23;;
20004;SDS011;69160;45.498;-73.582;2023-05-14T03:52:09;2.93;;;1.30;;
20004;SDS011;69160;45.498;-73.582;2023-05-14T03:54:35;1.13;;;1.03;;
20004;SDS011;69160;45.498;-73.582;2023-05-14T03:57:02;3.57;;;1.40;;
20004;SDS011;69160;45.498;-73.582;2023-05-14T03:59:29;2.27;;;1.33;;
20004;SDS011;69160;45.498;-73.582;2023-05-14T04:01:55;1.20;;;1.10;;
20004;SDS011;69160;45.498;-73.582;2023-05-14T04:04:21;1.40;;;1.20;;
20004;SDS011;69160;45.498;-73.582;2023-05-14T04:06:47;1.83;;;1.30;;
20004;SDS011;69160;45.498;-73.582;2023-05-14T04:09:13;1.90;;;1.40;;
20004;SDS011;69160;45.498;-73.582;2023-05-14T04:11:39;2.20;;;1.23;;
20004;SDS011;69160;45.498;-73.582;2023-05-14T04:14:06;2.73;;;1.20;;
20004;SDS011;69160;45.498;-73.582;2023-05-14T04:16:32;2.97;;;1.30;;
20004;SDS011;69160;45.498;-73.582;2023-05-14T04:18:59;2.83;;;1.13;;
20004;SDS011;69160;45.498;-73.582;2023-05-14T04:21:27;1.83;;;1.27;;
20004;SDS011;69160;45.498;-73.582;2023-05-14T04:23:54;2.33;;;1.20;;
20004;SDS011;69160;45.498;-73.582;2023-05-14T04:26:20;3.23;;;1.57;;
20004;SDS011;69160;45.498;-73.582;2023-05-14T04:28:46;1.20;;;1.10;;
20004;SDS011;69160;45.498;-73.582;2023-05-14T04:31:12;1.97;;;1.10;;
20004;SDS011;69160;45.498;-73.582;2023-05-14T04:33:39;5.60;;;1.17;;
20004;SDS011;69160;45.498;-73.582;2023-05-14T04:36:05;1.57;;;1.00;;
20004;SDS011;69160;45.498;-73.582;2023-05-14T04:38:31;2.40;;;1.20;;
20004;SDS011;69160;45.498;-73.582;2023-05-14T04:40:58;1.13;;;1.03;;
20004;SDS011;69160;45.498;-73.582;2023-05-14T04:43:24;2.43;;;1.00;;
20004;SDS011;69160;45.498;-73.582;2023-05-14T04:45:50;2.60;;;1.33;;
20004;SDS011;69160;45.498;-73.582;2023-05-14T04:48:16;3.53;;;1.10;;
20004;SDS011;69160;45.498;-73.582;2023-05-14T04:50:42;2.53;;;1.00;;
20004;SDS011;69160;45.498;-73.582;2023-05-14T04:53:09;3.03;;;1.10;;
20004;SDS011;69160;45.498;-73.582;2023-05-14T04:55:35;1.83;;;1.10;;
20004;SDS011;69160;45.498;-73.582;2023-05-14T04:58:02;1.77;;;1.00;;
20004;SDS011;69160;45.498;-73.582;2023-05-14T05:00:28;1.20;;;1.10;;
20004;SDS011;69160;45.498;-73.582;2023-05-14T05:02:54;1.17;;;1.07;;
20004;SDS011;69160;45.498;-73.582;2023-05-14T05:05:20;1.50;;;1.03;;
20004;SDS011;69160;45.498;-73.582;2023-05-14T05:07:47;3.87;;;1.00;;
20004;SDS011;69160;45.498;-73.582;2023-05-14T05:10:13;2.13;;;0.97;;
20004;SDS011;69160;45.498;-73.582;2023-05-14T05:12:39;1.30;;;1.10;;
20004;SDS011;69160;45.498;-73.582;2023-05-14T05:15:06;1.77;;;1.20;;
20004;SDS011;69160;45.498;-73.582;2023-05-14T05:17:33;1.17;;;0.97;;
20004;SDS011;69160;45.498;-73.582;2023-05-14T05:20:00;1.40;;;1.10;;
20004;SDS011;69160;45.498;-73.582;2023-05-14T05:22:27;1.63;;;1.10;;
20004;SDS011;69160;45.498;-73.582;2023-05-14T05:24:53;1.17;;;0.90;;
20004;SDS011;69160;45.498;-73.582;2023-05-14T05:27:19;2.70;;;0.90;;
20004;SDS011;69160;45.498;-73.582;2023-05-14T05:29:46;3.87;;;1.50;;
20004;SDS011;69160;45.498;-73.582;2023-05-14T05:32:12;1.30;;;1.03;;
20004;SDS011;69160;45.498;-73.582;2023-05-14T05:34:38;1.03;;;0.93;;
20004;SDS011;69160;45.498;-73.582;2023-05-14T05:37:05;0.80;;;0.80;;
20004;SDS011;69160;45.498;-73.582;2023-05-14T05:39:33;1.43;;;1.10;;
20004;SDS011;69160;45.498;-73.582;2023-05-14T05:42:00;1.00;;;0.90;;
20004;SDS011;69160;45.498;-73.582;2023-05-14T05:44:26;4.10;;;1.10;;
20004;SDS011;69160;45.498;-73.582;2023-05-14T05:46:52;1.00;;;0.90;;
20004;SDS011;69160;45.498;-73.582;2023-05-14T05:49:21;1.53;;;0.90;;
20004;SDS011;69160;45.498;-73.582;2023-05-14T05:51:47;1.80;;;1.03;;
20004;SDS011;69160;45.498;-73.582;2023-05-14T05:54:13;1.20;;;0.80;;
20004;SDS011;69160;45.498;-73.582;2023-05-14T05:56:39;0.90;;;0.90;;
20004;SDS011;69160;45.498;-73.582;2023-05-14T05:59:06;1.00;;;0.90;;
20004;SDS011;69160;45.498;-73.582;2023-05-14T06:01:32;1.30;;;0.80;;
20004;SDS011;69160;45.498;-73.582;2023-05-14T06:03:58;0.87;;;0.80;;
20004;SDS011;69160;45.498;-73.582;2023-05-14T06:06:24;3.67;;;1.10;;
20004;SDS011;69160;45.498;-73.582;2023-05-14T06:08:50;0.90;;;0.70;;
20004;SDS011;69160;45.498;-73.582;2023-05-14T06:11:16;0.97;;;0.87;;
20004;SDS011;69160;45.498;-73.582;2023-05-14T06:13:42;1.83;;;0.83;;
20004;SDS011;69160;45.498;-73.582;2023-05-14T06:16:08;0.90;;;0.80;;
20004;SDS011;69160;45.498;-73.582;2023-05-14T06:18:34;1.00;;;0.90;;
20004;SDS011;69160;45.498;-73.582;2023-05-14T06:21:00;1.70;;;0.80;;
20004;SDS011;69160;45.498;-73.582;2023-05-14T06:23:27;1.67;;;1.00;;
20004;SDS011;69160;45.498;-73.582;2023-05-14T06:25:53;0.80;;;0.70;;
20004;SDS011;69160;45.498;-73.582;2023-05-14T06:28:19;1.33;;;0.90;;
20004;SDS011;69160;45.498;-73.582;2023-05-14T06:30:48;1.43;;;1.00;;
20004;SDS011;69160;45.498;-73.582;2023-05-14T06:33:14;1.10;;;0.90;;
20004;SDS011;69160;45.498;-73.582;2023-05-14T06:35:40;2.90;;;1.20;;
20004;SDS011;69160;45.498;-73.582;2023-05-14T06:38:07;3.00;;;1.20;;
20004;SDS011;69160;45.498;-73.582;2023-05-14T06:40:33;1.20;;;0.70;;
20004;SDS011;69160;45.498;-73.582;2023-05-14T06:42:59;1.10;;;0.90;;
20004;SDS011;69160;45.498;-73.582;2023-05-14T06:45:25;1.07;;;0.90;;
20004;SDS011;69160;45.498;-73.582;2023-05-14T06:47:51;1.27;;;0.60;;
20004;SDS011;69160;45.498;-73.582;2023-05-14T06:50:18;0.87;;;0.87;;
20004;SDS011;69160;45.498;-73.582;2023-05-14T06:52:44;1.10;;;1.00;;
20004;SDS011;69160;45.498;-73.582;2023-05-14T06:55:10;1.20;;;0.80;;
20004;SDS011;69160;45.498;-73.582;2023-05-14T06:57:37;0.97;;;0.87;;
20004;SDS011;69160;45.498;-73.582;2023-05-14T07:00:03;0.83;;;0.70;;
20004;SDS011;69160;45.498;-73.582;2023-05-14T07:02:30;1.00;;;0.63;;
20004;SDS011;69160;45.498;-73.582;2023-05-14T07:04:56;1.00;;;0.90;;
20004;SDS011;69160;45.498;-73.582;2023-05-14T07:07:22;1.27;;;0.90;;
20004;SDS011;69160;45.498;-73.582;2023-05-14T07:09:48;0.70;;;0.70;;
20004;SDS011;69160;45.498;-73.582;2023-05-14T07:12:15;1.20;;;0.87;;
20004;SDS011;69160;45.498;-73.582;2023-05-14T07:14:41;1.00;;;0.80;;
20004;SDS011;69160;45.498;-73.582;2023-05-14T07:17:07;1.77;;;0.90;;
20004;SDS011;69160;45.498;-73.582;2023-05-14T07:19:33;1.20;;;1.10;;
20004;SDS011;69160;45.498;-73.582;2023-05-14T07:21:59;1.00;;;0.90;;
20004;SDS011;69160;45.498;-73.582;2023-05-14T07:24:26;0.80;;;0.63;;
20004;SDS011;69160;45.498;-73.582;2023-05-14T07:26:52;0.93;;;0.70;;
20004;SDS011;69160;45.498;-73.582;2023-05-14T07:29:19;0.83;;;0.77;;
20004;SDS011;69160;45.498;-73.582;2023-05-14T07:31:45;1.37;;;0.80;;
20004;SDS011;69160;45.498;-73.582;2023-05-14T07:34:11;0.70;;;0.70;;
20004;SDS011;69160;45.498;-73.582;2023-05-14T07:36:37;0.70;;;0.63;;
20004;SDS011;69160;45.498;-73.582;2023-05-14T07:39:04;1.30;;;0.73;;
20004;SDS011;69160;45.498;-73.582;2023-05-14T07:41:30;1.00;;;0.70;;
20004;SDS011;69160;45.498;-73.582;2023-05-14T07:43:56;0.87;;;0.77;;
20004;SDS011;69160;45.498;-73.582;2023-05-14T07:46:22;2.83;;;0.90;;
20004;SDS011;69160;45.498;-73.582;2023-05-14T07:48:50;1.67;;;0.90;;
20004;SDS011;69160;45.498;-73.582;2023-05-14T07:51:16;0.83;;;0.80;;
20004;SDS011;69160;45.498;-73.582;2023-05-14T07:53:42;1.67;;;0.87;;
20004;SDS011;69160;45.498;-73.582;2023-05-14T07:56:08;1.07;;;0.80;;
20004;SDS011;69160;45.498;-73.582;2023-05-14T07:58:34;0.90;;;0.80;;
20004;SDS011;69160;45.498;-73.582;2023-05-14T08:01:00;1.00;;;0.80;;
20004;SDS011;69160;45.498;-73.582;2023-05-14T08:03:31;0.90;;;0.80;;
20004;SDS011;69160;45.498;-73.582;2023-05-14T08:05:58;1.13;;;0.70;;
20004;SDS011;69160;45.498;-73.582;2023-05-14T08:08:24;1.27;;;0.97;;
20004;SDS011;69160;45.498;-73.582;2023-05-14T08:10:51;0.83;;;0.73;;
20004;SDS011;69160;45.498;-73.582;2023-05-14T08:13:17;0.90;;;0.63;;
20004;SDS011;69160;45.498;-73.582;2023-05-14T08:15:43;0.60;;;0.50;;
20004;SDS011;69160;45.498;-73.582;2023-05-14T08:18:09;0.97;;;0.80;;
20004;SDS011;69160;45.498;-73.582;2023-05-14T08:20:36;0.83;;;0.80;;
20004;SDS011;69160;45.498;-73.582;2023-05-14T08:23:02;0.80;;;0.70;;
20004;SDS011;69160;45.498;-73.582;2023-05-14T08:25:28;0.80;;;0.80;;
20004;SDS011;69160;45.498;-73.582;2023-05-14T08:27:54;0.70;;;0.60;;
20004;SDS011;69160;45.498;-73.582;2023-05-14T08:30:20;1.23;;;0.60;;
20004;SDS011;69160;45.498;-73.582;2023-05-14T08:32:46;1.30;;;0.67;;
20004;SDS011;69160;45.498;-73.582;2023-05-14T08:35:12;1.60;;;0.77;;
20004;SDS011;69160;45.498;-73.582;2023-05-14T08:37:39;0.60;;;0.50;;
20004;SDS011;69160;45.498;-73.582;2023-05-14T08:40:05;1.63;;;0.70;;
20004;SDS011;69160;45.498;-73.582;2023-05-14T08:42:32;0.77;;;0.60;;
20004;SDS011;69160;45.498;-73.582;2023-05-14T08:45:00;0.70;;;0.50;;
20004;SDS011;69160;45.498;-73.582;2023-05-14T08:47:28;0.63;;;0.60;;
20004;SDS011;69160;45.498;-73.582;2023-05-14T08:50:01;0.70;;;0.60;;
20004;SDS011;69160;45.498;-73.582;2023-05-14T08:52:28;1.30;;;0.80;;
20004;SDS011;69160;45.498;-73.582;2023-05-14T08:54:56;0.80;;;0.73;;
20004;SDS011;69160;45.498;-73.582;2023-05-14T08:57:27;1.03;;;0.40;;
20004;SDS011;69160;45.498;-73.582;2023-05-14T08:59:56;0.90;;;0.73;;
20004;SDS011;69160;45.498;-73.582;2023-05-14T09:02:23;2.00;;;0.70;;
20004;SDS011;69160;45.498;-73.582;2023-05-14T09:04:57;0.80;;;0.60;;
20004;SDS011;69160;45.498;-73.582;2023-05-14T09:07:24;0.70;;;0.60;;
20004;SDS011;69160;45.498;-73.582;2023-05-14T09:09:51;1.23;;;0.70;;
20004;SDS011;69160;45.498;-73.582;2023-05-14T09:12:18;0.70;;;0.60;;
20004;SDS011;69160;45.498;-73.582;2023-05-14T09:14:44;0.70;;;0.60;;
20004;SDS011;69160;45.498;-73.582;2023-05-14T09:17:11;0.77;;;0.67;;
20004;SDS011;69160;45.498;-73.582;2023-05-14T09:19:40;0.60;;;0.57;;
20004;SDS011;69160;45.498;-73.582;2023-05-14T09:22:11;0.60;;;0.60;;
20004;SDS011;69160;45.498;-73.582;2023-05-14T09:24:38;0.80;;;0.60;;
20004;SDS011;69160;45.498;-73.582;2023-05-14T09:27:05;0.70;;;0.50;;
20004;SDS011;69160;45.498;-73.582;2023-05-14T09:29:32;0.80;;;0.63;;
20004;SDS011;69160;45.498;-73.582;2023-05-14T09:31:59;0.70;;;0.60;;
20004;SDS011;69160;45.498;-73.582;2023-05-14T09:34:32;0.90;;;0.60;;
20004;SDS011;69160;45.498;-73.582;2023-05-14T09:37:06;0.60;;;0.50;;
20004;SDS011;69160;45.498;-73.582;2023-05-14T09:39:33;0.90;;;0.60;;
20004;SDS011;69160;45.498;-73.582;2023-05-14T09:42:01;0.70;;;0.57;;
20004;SDS011;69160;45.498;-73.582;2023-05-14T09:44:28;0.80;;;0.67;;
20004;SDS011;69160;45.498;-73.582;2023-05-14T09:46:54;0.67;;;0.60;;
20004;SDS011;69160;45.498;-73.582;2023-05-14T09:49:20;0.60;;;0.50;;
20004;SDS011;69160;45.498;-73.582;2023-05-14T09:51:47;0.83;;;0.67;;
20004;SDS011;69160;45.498;-73.582;2023-05-14T09:54:14;0.90;;;0.60;;
20004;SDS011;69160;45.498;-73.582;2023-05-14T09:56:41;1.20;;;0.73;;
20004;SDS011;69160;45.498;-73.582;2023-05-14T09:59:08;0.63;;;0.57;;
20004;SDS011;69160;45.498;-73.582;2023-05-14T10:01:35;0.80;;;0.60;;
20004;SDS011;69160;45.498;-73.582;2023-05-14T10:04:02;0.90;;;0.73;;
20004;SDS011;69160;45.498;-73.582;2023-05-14T10:06:32;0.70;;;0.70;;
20004;SDS011;69160;45.498;-73.582;2023-05-14T10:09:02;0.70;;;0.50;;
20004;SDS011;69160;45.498;-73.582;2023-05-14T10:11:31;0.70;;;0.57;;
20004;SDS011;69160;45.498;-73.582;2023-05-14T10:14:02;0.70;;;0.60;;
20004;SDS011;69160;45.498;-73.582;2023-05-14T10:16:34;0.60;;;0.50;;
20004;SDS011;69160;45.498;-73.582;2023-05-14T10:19:05;0.70;;;0.57;;
20004;SDS011;69160;45.498;-73.582;2023-05-14T10:21:34;0.77;;;0.63;;
20004;SDS011;69160;45.498;-73.582;2023-05-14T10:24:02;0.70;;;0.60;;
20004;SDS011;69160;45.498;-73.582;2023-05-14T10:26:30;0.93;;;0.70;;
20004;SDS011;69160;45.498;-73.582;2023-05-14T10:28:57;0.80;;;0.70;;
20004;SDS011;69160;45.498;-73.582;2023-05-14T10:37:10;0.70;;;0.60;;
20004;SDS011;69160;45.498;-73.582;2023-05-14T10:42:06;0.77;;;0.63;;
20004;SDS011;69160;45.498;-73.582;2023-05-14T10:44:35;0.70;;;0.50;;
20004;SDS011;69160;45.498;-73.582;2023-05-14T10:47:07;0.90;;;0.50;;
20004;SDS011;69160;45.498;-73.582;2023-05-14T10:49:33;0.67;;;0.63;;
20004;SDS011;69160;45.498;-73.582;2023-05-14T10:51:59;2.40;;;0.60;;
20004;SDS011;69160;45.498;-73.582;2023-05-14T10:54:26;1.90;;;0.70;;
20004;SDS011;69160;45.498;-73.582;2023-05-14T10:56:53;0.70;;;0.60;;
20004;SDS011;69160;45.498;-73.582;2023-05-14T10:59:25;1.70;;;0.80;;
20004;SDS011;69160;45.498;-73.582;2023-05-14T11:01:52;5.30;;;0.53;;
20004;SDS011;69160;45.498;-73.582;2023-05-14T11:04:22;2.73;;;0.83;;
20004;SDS011;69160;45.498;-73.582;2023-05-14T11:06:49;0.80;;;0.60;;
20004;SDS011;69160;45.498;-73.582;2023-05-14T11:09:17;0.70;;;0.57;;
20004;SDS011;69160;45.498;-73.582;2023-05-14T11:11:46;0.60;;;0.60;;
20004;SDS011;69160;45.498;-73.582;2023-05-14T11:14:13;2.20;;;0.80;;
20004;SDS011;69160;45.498;-73.582;2023-05-14T11:16:39;1.43;;;0.60;;
20004;SDS011;69160;45.498;-73.582;2023-05-14T11:19:06;1.57;;;0.90;;
20004;SDS011;69160;45.498;-73.582;2023-05-14T11:21:32;1.70;;;0.80;;
20004;SDS011;69160;45.498;-73.582;2023-05-14T11:23:58;0.87;;;0.67;;
20004;SDS011;69160;45.498;-73.582;2023-05-14T11:26:25;2.20;;;0.80;;
20004;SDS011;69160;45.498;-73.582;2023-05-14T11:28:51;0.70;;;0.60;;
20004;SDS011;69160;45.498;-73.582;2023-05-14T11:31:17;2.33;;;0.80;;
20004;SDS011;69160;45.498;-73.582;2023-05-14T11:33:43;1.03;;;0.60;;
20004;SDS011;69160;45.498;-73.582;2023-05-14T11:36:10;3.93;;;0.63;;
20004;SDS011;69160;45.498;-73.582;2023-05-14T11:38:44;1.97;;;0.70;;
20004;SDS011;69160;45.498;-73.582;2023-05-14T11:41:16;1.27;;;0.50;;
20004;SDS011;69160;45.498;-73.582;2023-05-14T11:43:45;0.80;;;0.50;;
20004;SDS011;69160;45.498;-73.582;2023-05-14T11:46:15;0.90;;;0.70;;
20004;SDS011;69160;45.498;-73.582;2023-05-14T11:48:44;1.00;;;0.90;;
20004;SDS011;69160;45.498;-73.582;2023-05-14T11:51:11;0.93;;;0.60;;
20004;SDS011;69160;45.498;-73.582;2023-05-14T11:53:37;1.00;;;0.60;;
20004;SDS011;69160;45.498;-73.582;2023-05-14T11:56:03;0.80;;;0.60;;
20004;SDS011;69160;45.498;-73.582;2023-05-14T11:58:32;0.77;;;0.67;;
20004;SDS011;69160;45.498;-73.582;2023-05-14T12:00:58;1.50;;;0.80;;
20004;SDS011;69160;45.498;-73.582;2023-05-14T12:03:24;1.43;;;0.77;;
20004;SDS011;69160;45.498;-73.582;2023-05-14T12:05:54;1.43;;;0.60;;
20004;SDS011;69160;45.498;-73.582;2023-05-14T12:08:21;3.53;;;0.80;;
20004;SDS011;69160;45.498;-73.582;2023-05-14T12:10:51;1.63;;;0.60;;
20004;SDS011;69160;45.498;-73.582;2023-05-14T12:13:18;1.93;;;0.70;;
20004;SDS011;69160;45.498;-73.582;2023-05-14T12:15:52;0.90;;;0.60;;
20004;SDS011;69160;45.498;-73.582;2023-05-14T12:18:20;1.20;;;0.83;;
20004;SDS011;69160;45.498;-73.582;2023-05-14T12:20:47;2.60;;;0.77;;
20004;SDS011;69160;45.498;-73.582;2023-05-14T12:23:15;2.20;;;0.73;;
20004;SDS011;69160;45.498;-73.582;2023-05-14T12:25:50;2.93;;;0.77;;
20004;SDS011;69160;45.498;-73.582;2023-05-14T12:28:17;4.20;;;1.10;;
20004;SDS011;69160;45.498;-73.582;2023-05-14T12:30:44;11.77;;;0.90;;
20004;SDS011;69160;45.498;-73.582;2023-05-14T12:33:11;2.23;;;1.00;;
20004;SDS011;69160;45.498;-73.582;2023-05-14T12:35:38;3.63;;;1.10;;
20004;SDS011;69160;45.498;-73.582;2023-05-14T12:38:05;2.87;;;0.80;;
20004;SDS011;69160;45.498;-73.582;2023-05-14T12:40:31;15.57;;;1.40;;
20004;SDS011;69160;45.498;-73.582;2023-05-14T12:42:57;12.87;;;1.30;;
20004;SDS011;69160;45.498;-73.582;2023-05-14T12:45:23;7.68;;;1.00;;
20004;SDS011;69160;45.498;-73.582;2023-05-14T12:47:49;19.47;;;1.10;;
20004;SDS011;69160;45.498;-73.582;2023-05-14T12:50:15;6.20;;;1.20;;
20004;SDS011;69160;45.498;-73.582;2023-05-14T12:52:42;14.00;;;1.30;;
20004;SDS011;69160;45.498;-73.582;2023-05-14T12:55:08;7.67;;;0.90;;
20004;SDS011;69160;45.498;-73.582;2023-05-14T12:57:34;4.33;;;1.33;;
20004;SDS011;69160;45.498;-73.582;2023-05-14T13:00:01;6.63;;;0.90;;
20004;SDS011;69160;45.498;-73.582;2023-05-14T13:02:31;15.70;;;1.67;;
20004;SDS011;69160;45.498;-73.582;2023-05-14T13:04:57;6.10;;;1.10;;
20004;SDS011;69160;45.498;-73.582;2023-05-14T13:07:23;8.77;;;1.20;;
20004;SDS011;69160;45.498;-73.582;2023-05-14T13:09:49;4.90;;;1.03;;
20004;SDS011;69160;45.498;-73.582;2023-05-14T13:12:15;7.60;;;1.30;;
20004;SDS011;69160;45.498;-73.582;2023-05-14T13:14:41;1.90;;;0.73;;
20004;SDS011;69160;45.498;-73.582;2023-05-14T13:17:08;2.07;;;0.97;;
20004;SDS011;69160;45.498;-73.582;2023-05-14T13:19:34;4.80;;;1.00;;
20004;SDS011;69160;45.498;-73.582;2023-05-14T13:22:00;3.90;;;1.37;;
20004;SDS011;69160;45.498;-73.582;2023-05-14T13:24:26;7.77;;;2.67;;
20004;SDS011;69160;45.498;-73.582;2023-05-14T13:26:52;21.03;;;9.83;;
20004;SDS011;69160;45.498;-73.582;2023-05-14T13:29:18;55.60;;;24.03;;
20004;SDS011;69160;45.498;-73.582;2023-05-14T13:31:44;105.70;;;44.93;;
20004;SDS011;69160;45.498;-73.582;2023-05-14T13:34:11;103.77;;;46.07;;
20004;SDS011;69160;45.498;-73.582;2023-05-14T13:36:37;110.30;;;50.73;;
20004;SDS011;69160;45.498;-73.582;2023-05-14T13:39:06;176.97;;;75.80;;
20004;SDS011;69160;45.498;-73.582;2023-05-14T13:41:32;165.53;;;70.77;;
20004;SDS011;69160;45.498;-73.582;2023-05-14T13:44:03;170.40;;;68.30;;
20004;SDS011;69160;45.498;-73.582;2023-05-14T13:46:29;152.80;;;67.67;;
20004;SDS011;69160;45.498;-73.582;2023-05-14T13:48:55;124.77;;;55.97;;
20004;SDS011;69160;45.498;-73.582;2023-05-14T13:51:22;132.73;;;58.90;;
20004;SDS011;69160;45.498;-73.582;2023-05-14T13:53:48;139.13;;;52.50;;
20004;SDS011;69160;45.498;-73.582;2023-05-14T13:56:14;115.03;;;48.30;;
20004;SDS011;69160;45.498;-73.582;2023-05-14T13:58:40;113.73;;;46.30;;
20004;SDS011;69160;45.498;-73.582;2023-05-14T14:01:06;106.03;;;43.80;;
20004;SDS011;69160;45.498;-73.582;2023-05-14T14:03:33;89.00;;;40.93;;
20004;SDS011;69160;45.498;-73.582;2023-05-14T14:05:59;87.83;;;37.90;;
20004;SDS011;69160;45.498;-73.582;2023-05-14T14:08:25;86.33;;;34.20;;
20004;SDS011;69160;45.498;-73.582;2023-05-14T14:10:51;69.47;;;30.73;;
20004;SDS011;69160;45.498;-73.582;2023-05-14T14:13:19;59.70;;;27.70;;
20004;SDS011;69160;45.498;-73.582;2023-05-14T14:15:47;63.43;;;28.13;;
20004;SDS011;69160;45.498;-73.582;2023-05-14T14:18:13;63.30;;;27.53;;
20004;SDS011;69160;45.498;-73.582;2023-05-14T14:20:39;57.03;;;24.93;;
20004;SDS011;69160;45.498;-73.582;2023-05-14T14:23:05;66.07;;;26.60;;
20004;SDS011;69160;45.498;-73.582;2023-05-14T14:25:31;55.33;;;24.30;;
20004;SDS011;69160;45.498;-73.582;2023-05-14T14:27:58;45.93;;;21.90;;
20004;SDS011;69160;45.498;-73.582;2023-05-14T14:30:24;40.23;;;18.53;;
20004;SDS011;69160;45.498;-73.582;2023-05-14T14:32:50;44.00;;;19.60;;
20004;SDS011;69160;45.498;-73.582;2023-05-14T14:35:17;38.50;;;17.73;;